Terminal Aerodrome Forecast
Issued by NWS

Home | Current Version | Previous Version | Text Only | Print | Product List | Glossary On
Versions: 1 2 3 4 5 6 7 8 9 10 11 12 13 14 15 16 17 18
361
FTUS43 KAPX 252320
TAFPLN
TAF
KPLN 252320Z 2600/2624 31009G20KT P6SM SKC
     FM260200 VRB03KT P6SM SKC
     FM261400 27008KT P6SM SKC
     FM261700 27010G16KT P6SM SCT080=

USA.gov is the U.S. government's official web portal to all federal, state and local government web resources and services.